Catawba Heights, North Carolina
Current Conditions -  °F | °C
As of 1:52 PM on Thursday 23 Oct 2014 (Local Time) from KCLT Reporting Station
Clear Clear  
Wind Chill: 67°   Ceiling: Unl
Heat Index: 67°   Visibility: 10mi
Dew Point: 37°   Wind: 13mph
Humidity: 33%   Direction: 340°NNW
Pressure: 30.04"   Gusts: 20mph
Location:  35.2342°N, 81.041°W
Report Text: KCLT 231752Z 34011G17KT 10SM CLR 19/03 A3004 RMK AO2 SLP169 T01940028 10194 20050 58021
Loading
Personal Weather Stations






























Interactive Weather Map New forecast layout! Learn more

10-Day Weather Forecast

Advertisements
Track Severe Weather on mobile